Amber Beverly — VRHK5 — position and weather

sailwx.info

Track history (hours):
 
Tides and Currents Weather Stations Pressure Air Temp Water Temp Dewpoint Dewpoint Depression Visibility Wind Speed Wind Dir Waves Ship Positions

Amber Beverly

Last reported at 2014-Jul-14 16:23 UTC. Time now 2014-Jul-30 11:12 UTC.
Position N 31°02' E 122°47'.
Warning: this ship's position is 15 days out of date.

Length 190 m; draft 7.3 m.

Type: Cargo ship. MMSI: 477317100.

Date/timePositionNaut miles runAvg speedWind from/ knotsBaromVisibWave heightAir tempDewpointWater temp
2014-Jul-14 16:23N 31°02' E 122°47'3 3.6
2014-Jul-14 15:33N 31°01' E 122°44'0 0.1
2014-Jul-14 11:05N 31°01' E 122°44'0 0.0
2014-Jul-14 08:11N 31°01' E 122°44'0 0.1
2014-Jul-14 07:17N 31°01' E 122°44'0 0.1
2014-Jul-14 06:17N 31°01' E 122°44'0 0.0
2014-Jul-14 05:29N 31°01' E 122°44'0 0.1
2014-Jul-14 01:23N 31°01' E 122°44'0 0.1
2014-Jul-14 00:29N 31°01' E 122°44'0 0.1
2014-Jul-13 22:29N 31°01' E 122°44'0 0.0
2014-Jul-13 21:05N 31°01' E 122°44'0 0.0
2014-Jul-13 20:17N 31°01' E 122°44'0 0.1
2014-Jul-13 19:29N 31°01' E 122°44'0 0.0
2014-Jul-13 18:29N 31°01' E 122°44'0 0.0
2014-Jul-13 09:05N 31°01' E 122°44'0 0.0
2014-Jul-13 08:29N 31°01' E 122°44'0 0.0
2014-Jul-13 07:05N 31°01' E 122°44'0 0.0
2014-Jul-13 04:29N 31°01' E 122°44'0 0.0
2014-Jul-12 23:11N 31°01' E 122°44'0 0.0
2014-Jul-12 19:17N 31°01' E 122°44'0 0.0
2014-Jul-12 18:29N 31°01' E 122°44'0 0.0
2014-Jul-12 17:29N 31°01' E 122°44'0 0.1
2014-Jul-12 16:23N 31°01' E 122°44'0 0.0
2014-Jul-12 09:11N 31°01' E 122°44'0 0.1
2014-Jul-12 08:11N 31°01' E 122°44'0 0.0
2014-Jul-12 07:23N 31°01' E 122°44'0 0.0
2014-Jul-12 06:11N 31°01' E 122°44'0 0.0
2014-Jul-12 05:29N 31°01' E 122°44'0 0.5
2014-Jul-12 04:32N 31°01' E 122°44'1212.0
2014-Jul-12 03:33N 30°59' E 122°30'1312.8
2014-Jul-12 02:33N 31°02' E 122°15'10 9.5
2014-Jul-12 01:31N 31°04' E 122°04'8 7.8
2014-Jul-12 00:28N 31°08' E 121°55'1213.4
2014-Jul-11 23:33N 31°16' E 121°45'1312.6
2014-Jul-11 22:34N 31°24' E 121°33'1111.1
2014-Jul-11 21:31N 31°31' E 121°23'8 8.7
2014-Jul-11 20:33N 31°38' E 121°17'0 0.0
2014-Jul-11 19:29N 31°38' E 121°17'0 0.2
2014-Jul-11 18:29N 31°38' E 121°17'0 0.0
2014-Jul-11 17:29N 31°38' E 121°17'0 0.0
2014-Jul-11 16:17N 31°38' E 121°17'0 0.0
2014-Jul-11 15:23N 31°38' E 121°17'0 0.0
2014-Jul-11 14:32N 31°38' E 121°17'0 0.2
2014-Jul-11 13:32N 31°38' E 121°17'0 0.1
2014-Jul-11 12:29N 31°38' E 121°17'0 0.0
2014-Jul-11 11:32N 31°38' E 121°17'5 5.6
2014-Jul-11 10:33N 31°40' E 121°12'1414.1
2014-Jul-11 09:32N 31°47' E 120°57'1313.1
2014-Jul-11 08:33N 31°59' E 120°50'1212.0
2014-Jul-11 07:33N 32°00' E 120°37'1010.1
2014-Jul-11 06:33N 32°02' E 120°25'1110.5
2014-Jul-11 05:33N 31°56' E 120°15'0 0.4
2014-Jul-11 04:33N 31°56' E 120°14'0 0.0
2014-Jul-11 03:32N 31°56' E 120°14'0 0.0
2014-Jul-11 02:30N 31°56' E 120°14'0 0.0
2014-Jul-11 01:32N 31°56' E 120°14'0 0.0
2014-Jul-11 00:32N 31°56' E 120°14'0 0.0
2014-Jul-10 23:32N 31°56' E 120°14'0 0.0
2014-Jul-10 22:32N 31°56' E 120°14'0 0.0
2014-Jul-10 21:32N 31°56' E 120°14'0 0.0
2014-Jul-10 20:32N 31°56' E 120°14'0 0.0
2014-Jul-10 19:32N 31°56' E 120°14'0 0.0
2014-Jul-10 18:29N 31°56' E 120°14'0 0.0
2014-Jul-10 17:32N 31°56' E 120°14'0 0.0
2014-Jul-10 16:29N 31°56' E 120°14'0 0.0
2014-Jul-10 15:32N 31°56' E 120°14'0 0.0
2014-Jul-10 14:29N 31°56' E 120°14'0 0.0
2014-Jul-10 13:32N 31°56' E 120°14'0 0.0
2014-Jul-10 12:32N 31°56' E 120°14'0 0.0
2014-Jul-10 11:32N 31°56' E 120°14'0 0.0
2014-Jul-10 10:29N 31°56' E 120°14'0 0.0
2014-Jul-10 09:29N 31°56' E 120°14'0 0.0
2014-Jul-10 08:32N 31°56' E 120°14'0 0.0
2014-Jul-10 07:29N 31°56' E 120°14'0 0.0
2014-Jul-10 06:32N 31°56' E 120°14'0 0.0
2014-Jul-10 05:29N 31°56' E 120°14'0 0.0
2014-Jul-10 04:32N 31°56' E 120°14'0 0.0
2014-Jul-10 03:29N 31°56' E 120°14'0 0.0
2014-Jul-10 02:32N 31°56' E 120°14'0 0.0
2014-Jul-10 01:32N 31°56' E 120°14'0 0.0
2014-Jul-10 00:32N 31°56' E 120°14'0 0.0
2014-Jul-09 23:32N 31°56' E 120°14'0 0.0
2014-Jul-09 22:32N 31°56' E 120°14'0 0.0
2014-Jul-09 21:32N 31°56' E 120°14'0 0.0
2014-Jul-09 20:32N 31°56' E 120°14'0 0.0
2014-Jul-09 19:32N 31°56' E 120°14'0 0.0
2014-Jul-09 18:29N 31°56' E 120°14'0 0.0
2014-Jul-09 17:32N 31°56' E 120°14'0 0.0
2014-Jul-09 16:32N 31°56' E 120°14'0 0.0
2014-Jul-09 15:32N 31°56' E 120°14'0 0.0
2014-Jul-09 14:32N 31°56' E 120°14'0 0.0
2014-Jul-09 13:32N 31°56' E 120°14'0 0.0
2014-Jul-09 12:32N 31°56' E 120°14'0 0.0
2014-Jul-09 11:26N 31°56' E 120°14'0 0.0
2014-Jul-09 10:26N 31°56' E 120°14'0 0.0
2014-Jul-09 09:29N 31°56' E 120°14'0 0.0
2014-Jul-09 08:32N 31°56' E 120°14'0 0.0
2014-Jul-09 07:32N 31°56' E 120°14'0 0.0
2014-Jul-09 06:32N 31°56' E 120°14'0 0.0
2014-Jul-09 05:32N 31°56' E 120°14'0 0.0
2014-Jul-09 04:26N 31°56' E 120°14'0 0.0
2014-Jul-09 03:32N 31°56' E 120°14'0 0.0
2014-Jul-09 02:32N 31°56' E 120°14'0 0.0
2014-Jul-09 01:32N 31°56' E 120°14'0 0.0
2014-Jul-09 00:32N 31°56' E 120°14'0 0.0
2014-Jul-08 23:29N 31°56' E 120°14'0 0.0
2014-Jul-08 22:32N 31°56' E 120°14'0 0.0
2014-Jul-08 21:32N 31°56' E 120°14'0 0.0
2014-Jul-08 20:29N 31°56' E 120°14'0 0.0
2014-Jul-08 19:32N 31°56' E 120°14'0 0.0
2014-Jul-08 18:32N 31°56' E 120°14'0 0.0
2014-Jul-08 17:29N 31°56' E 120°14'0 0.0
2014-Jul-08 16:29N 31°56' E 120°14'0 0.0
2014-Jul-08 15:29N 31°56' E 120°14'0 0.0
2014-Jul-08 14:32N 31°56' E 120°14'0 0.0
2014-Jul-08 13:29N 31°56' E 120°14'0 0.0
2014-Jul-08 12:29N 31°56' E 120°14'0 0.0
2014-Jul-08 11:32N 31°56' E 120°14'2 1.6
2014-Jul-08 10:33N 31°57' E 120°16'8 7.9
2014-Jul-08 09:33N 31°58' E 120°25'6 6.1
2014-Jul-08 08:33N 32°02' E 120°31'9 9.0
2014-Jul-08 07:33N 32°00' E 120°41'7 7.4
2014-Jul-08 06:33N 31°59' E 120°50'10 9.9
2014-Jul-08 05:33N 31°50' E 120°54'11 9.5
2014-Jul-08 04:22N 31°45' E 121°06'1110.8
2014-Jul-08 03:20N 31°38' E 121°16'4 4.1
2014-Jul-08 02:17N 31°35' E 121°20'0 0.1
2014-Jul-08 00:11N 31°35' E 121°19'0 0.1
2014-Jul-07 23:29N 31°35' E 121°19'0 0.1
2014-Jul-07 22:29N 31°35' E 121°20'0 0.0
2014-Jul-07 21:29N 31°35' E 121°20'0 0.0
2014-Jul-07 20:29N 31°35' E 121°20'0 0.0
2014-Jul-07 18:29N 31°35' E 121°20'0 0.0
2014-Jul-07 17:11N 31°35' E 121°20'0 0.0
2014-Jul-07 16:29N 31°35' E 121°20'0 0.0
2014-Jul-07 15:33N 31°35' E 121°20'4 4.0
2014-Jul-07 14:34N 31°32' E 121°23'10 9.6
2014-Jul-07 13:33N 31°25' E 121°31'9 9.1
2014-Jul-07 12:34N 31°21' E 121°40'10 9.9
2014-Jul-07 11:32N 31°16' E 121°51'2510.0
2014-Jul-07 09:04N 31°07' E 122°18'14 8.1
2014-Jul-07 07:22N 31°08' E 122°34'10 0.8
2014-Jul-06 19:23N 31°06' E 122°45'1011.2
2014-Jul-06 18:32N 30°58' E 122°52'1111.3
2014-Jul-06 17:33N 30°48' E 122°56'1211.3
2014-Jul-06 16:32N 30°37' E 123°00'1111.2
2014-Jul-06 15:33N 30°26' E 123°04'1411.5
2014-Jul-06 14:20N 30°13' E 123°08'3111.1
2014-Jul-06 11:33N 29°50' E 122°44'1111.1
2014-Jul-06 10:34N 29°42' E 122°35'1211.7
2014-Jul-06 09:33N 29°43' E 122°22'1010.3
2014-Jul-06 08:33N 29°50' E 122°13'9 9.4
2014-Jul-06 07:33N 29°55' E 122°04'8 7.9
2014-Jul-06 06:33N 30°02' E 121°59'0 0.4
2014-Jul-06 05:24N 30°02' E 121°59'0 0.0
2014-Jul-06 04:30N 30°02' E 121°59'0 0.0
2014-Jul-06 03:30N 30°02' E 121°59'0 0.0
2014-Jul-06 02:30N 30°02' E 121°59'0 0.0
2014-Jul-06 01:30N 30°02' E 121°59'0 0.0
2014-Jul-06 00:30N 30°02' E 121°59'0 0.0
2014-Jul-05 23:30N 30°02' E 121°59'0 0.0
2014-Jul-05 22:29N 30°02' E 121°59'0 0.0
2014-Jul-05 21:30N 30°02' E 121°59'0 0.0
2014-Jul-05 20:24N 30°02' E 121°59'0 0.0
2014-Jul-05 19:30N 30°02' E 121°59'0 0.0
2014-Jul-05 18:30N 30°02' E 121°59'0 0.0
2014-Jul-05 17:30N 30°02' E 121°59'0 0.0
2014-Jul-05 16:30N 30°02' E 121°59'0 0.0
2014-Jul-05 15:30N 30°02' E 121°59'0 0.0
2014-Jul-05 14:30N 30°02' E 121°59'0 0.0
2014-Jul-05 13:24N 30°02' E 121°59'0 0.0
2014-Jul-05 12:30N 30°02' E 121°59'0 0.0
2014-Jul-05 11:30N 30°02' E 121°59'0 0.0
2014-Jul-05 10:30N 30°02' E 121°59'0 0.0
2014-Jul-05 09:29N 30°02' E 121°59'0 0.0
2014-Jul-05 08:30N 30°02' E 121°59'0 0.0
2014-Jul-05 07:30N 30°02' E 121°59'0 0.0
2014-Jul-05 06:30N 30°02' E 121°59'0 0.0
2014-Jul-05 05:33N 30°02' E 121°59'3 3.0
2014-Jul-05 04:34N 29°59' E 121°58'1010.2
2014-Jul-05 03:34N 29°56' E 122°09'1010.2
2014-Jul-05 02:33N 29°47' E 122°16'7 6.9
2014-Jul-05 01:33N 29°44' E 122°23'9 8.6
2014-Jul-05 00:32N 29°40' E 122°32'5 1.6
2014-Jul-04 21:31N 29°35' E 122°34'0 0.1
2014-Jul-04 20:31N 29°35' E 122°34'0 0.1
2014-Jul-04 19:31N 29°35' E 122°34'  
Track history (hours):
 
Tides and Currents Weather Stations Pressure Air Temp Water Temp Dewpoint Dewpoint Depression Visibility Wind Speed Wind Dir Waves Ship Positions

Amber Beverly

Last reported at 2014-Jul-14 16:23 UTC. Time now 2014-Jul-30 11:12 UTC.
Position N 31°02' E 122°47'.
Warning: this ship's position is 15 days out of date.

Length 190 m; draft 7.3 m.

Type: Cargo ship. MMSI: 477317100.

Date/timePositionNaut miles runAvg speedWind from/ knotsBaromVisibWave heightAir tempDewpointWater temp
2014-Jul-14 16:23N 31°02' E 122°47'3 3.6
2014-Jul-14 15:33N 31°01' E 122°44'0 0.1
2014-Jul-14 11:05N 31°01' E 122°44'0 0.0
2014-Jul-14 08:11N 31°01' E 122°44'0 0.1
2014-Jul-14 07:17N 31°01' E 122°44'0 0.1
2014-Jul-14 06:17N 31°01' E 122°44'0 0.0
2014-Jul-14 05:29N 31°01' E 122°44'0 0.1
2014-Jul-14 01:23N 31°01' E 122°44'0 0.1
2014-Jul-14 00:29N 31°01' E 122°44'0 0.1
2014-Jul-13 22:29N 31°01' E 122°44'0 0.0
2014-Jul-13 21:05N 31°01' E 122°44'0 0.0
2014-Jul-13 20:17N 31°01' E 122°44'0 0.1
2014-Jul-13 19:29N 31°01' E 122°44'0 0.0
2014-Jul-13 18:29N 31°01' E 122°44'0 0.0
2014-Jul-13 09:05N 31°01' E 122°44'0 0.0
2014-Jul-13 08:29N 31°01' E 122°44'0 0.0
2014-Jul-13 07:05N 31°01' E 122°44'0 0.0
2014-Jul-13 04:29N 31°01' E 122°44'0 0.0
2014-Jul-12 23:11N 31°01' E 122°44'0 0.0
2014-Jul-12 19:17N 31°01' E 122°44'0 0.0
2014-Jul-12 18:29N 31°01' E 122°44'0 0.0
2014-Jul-12 17:29N 31°01' E 122°44'0 0.1
2014-Jul-12 16:23N 31°01' E 122°44'0 0.0
2014-Jul-12 09:11N 31°01' E 122°44'0 0.1
2014-Jul-12 08:11N 31°01' E 122°44'0 0.0
2014-Jul-12 07:23N 31°01' E 122°44'0 0.0
2014-Jul-12 06:11N 31°01' E 122°44'0 0.0
2014-Jul-12 05:29N 31°01' E 122°44'0 0.5
2014-Jul-12 04:32N 31°01' E 122°44'1212.0
2014-Jul-12 03:33N 30°59' E 122°30'1312.8
2014-Jul-12 02:33N 31°02' E 122°15'10 9.5
2014-Jul-12 01:31N 31°04' E 122°04'8 7.8
2014-Jul-12 00:28N 31°08' E 121°55'1213.4
2014-Jul-11 23:33N 31°16' E 121°45'1312.6
2014-Jul-11 22:34N 31°24' E 121°33'1111.1
2014-Jul-11 21:31N 31°31' E 121°23'8 8.7
2014-Jul-11 20:33N 31°38' E 121°17'0 0.0
2014-Jul-11 19:29N 31°38' E 121°17'0 0.2
2014-Jul-11 18:29N 31°38' E 121°17'0 0.0
2014-Jul-11 17:29N 31°38' E 121°17'0 0.0
2014-Jul-11 16:17N 31°38' E 121°17'0 0.0
2014-Jul-11 15:23N 31°38' E 121°17'0 0.0
2014-Jul-11 14:32N 31°38' E 121°17'0 0.2
2014-Jul-11 13:32N 31°38' E 121°17'0 0.1
2014-Jul-11 12:29N 31°38' E 121°17'0 0.0
2014-Jul-11 11:32N 31°38' E 121°17'5 5.6
2014-Jul-11 10:33N 31°40' E 121°12'1414.1
2014-Jul-11 09:32N 31°47' E 120°57'1313.1
2014-Jul-11 08:33N 31°59' E 120°50'1212.0
2014-Jul-11 07:33N 32°00' E 120°37'1010.1
2014-Jul-11 06:33N 32°02' E 120°25'1110.5
2014-Jul-11 05:33N 31°56' E 120°15'0 0.4
2014-Jul-11 04:33N 31°56' E 120°14'0 0.0
2014-Jul-11 03:32N 31°56' E 120°14'0 0.0
2014-Jul-11 02:30N 31°56' E 120°14'0 0.0
2014-Jul-11 01:32N 31°56' E 120°14'0 0.0
2014-Jul-11 00:32N 31°56' E 120°14'0 0.0
2014-Jul-10 23:32N 31°56' E 120°14'0 0.0
2014-Jul-10 22:32N 31°56' E 120°14'0 0.0
2014-Jul-10 21:32N 31°56' E 120°14'0 0.0
2014-Jul-10 20:32N 31°56' E 120°14'0 0.0
2014-Jul-10 19:32N 31°56' E 120°14'0 0.0
2014-Jul-10 18:29N 31°56' E 120°14'0 0.0
2014-Jul-10 17:32N 31°56' E 120°14'0 0.0
2014-Jul-10 16:29N 31°56' E 120°14'0 0.0
2014-Jul-10 15:32N 31°56' E 120°14'0 0.0
2014-Jul-10 14:29N 31°56' E 120°14'0 0.0
2014-Jul-10 13:32N 31°56' E 120°14'0 0.0
2014-Jul-10 12:32N 31°56' E 120°14'0 0.0
2014-Jul-10 11:32N 31°56' E 120°14'0 0.0
2014-Jul-10 10:29N 31°56' E 120°14'0 0.0
2014-Jul-10 09:29N 31°56' E 120°14'0 0.0
2014-Jul-10 08:32N 31°56' E 120°14'0 0.0
2014-Jul-10 07:29N 31°56' E 120°14'0 0.0
2014-Jul-10 06:32N 31°56' E 120°14'0 0.0
2014-Jul-10 05:29N 31°56' E 120°14'0 0.0
2014-Jul-10 04:32N 31°56' E 120°14'0 0.0
2014-Jul-10 03:29N 31°56' E 120°14'0 0.0
2014-Jul-10 02:32N 31°56' E 120°14'0 0.0
2014-Jul-10 01:32N 31°56' E 120°14'0 0.0
2014-Jul-10 00:32N 31°56' E 120°14'0 0.0
2014-Jul-09 23:32N 31°56' E 120°14'0 0.0
2014-Jul-09 22:32N 31°56' E 120°14'0 0.0
2014-Jul-09 21:32N 31°56' E 120°14'0 0.0
2014-Jul-09 20:32N 31°56' E 120°14'0 0.0
2014-Jul-09 19:32N 31°56' E 120°14'0 0.0
2014-Jul-09 18:29N 31°56' E 120°14'0 0.0
2014-Jul-09 17:32N 31°56' E 120°14'0 0.0
2014-Jul-09 16:32N 31°56' E 120°14'0 0.0
2014-Jul-09 15:32N 31°56' E 120°14'0 0.0
2014-Jul-09 14:32N 31°56' E 120°14'0 0.0
2014-Jul-09 13:32N 31°56' E 120°14'0 0.0
2014-Jul-09 12:32N 31°56' E 120°14'0 0.0
2014-Jul-09 11:26N 31°56' E 120°14'0 0.0
2014-Jul-09 10:26N 31°56' E 120°14'0 0.0
2014-Jul-09 09:29N 31°56' E 120°14'0 0.0
2014-Jul-09 08:32N 31°56' E 120°14'0 0.0
2014-Jul-09 07:32N 31°56' E 120°14'0 0.0
2014-Jul-09 06:32N 31°56' E 120°14'0 0.0
2014-Jul-09 05:32N 31°56' E 120°14'0 0.0
2014-Jul-09 04:26N 31°56' E 120°14'0 0.0
2014-Jul-09 03:32N 31°56' E 120°14'0 0.0
2014-Jul-09 02:32N 31°56' E 120°14'0 0.0
2014-Jul-09 01:32N 31°56' E 120°14'0 0.0
2014-Jul-09 00:32N 31°56' E 120°14'0 0.0
2014-Jul-08 23:29N 31°56' E 120°14'0 0.0
2014-Jul-08 22:32N 31°56' E 120°14'0 0.0
2014-Jul-08 21:32N 31°56' E 120°14'0 0.0
2014-Jul-08 20:29N 31°56' E 120°14'0 0.0
2014-Jul-08 19:32N 31°56' E 120°14'0 0.0
2014-Jul-08 18:32N 31°56' E 120°14'0 0.0
2014-Jul-08 17:29N 31°56' E 120°14'0 0.0
2014-Jul-08 16:29N 31°56' E 120°14'0 0.0
2014-Jul-08 15:29N 31°56' E 120°14'0 0.0
2014-Jul-08 14:32N 31°56' E 120°14'0 0.0
2014-Jul-08 13:29N 31°56' E 120°14'0 0.0
2014-Jul-08 12:29N 31°56' E 120°14'0 0.0
2014-Jul-08 11:32N 31°56' E 120°14'2 1.6
2014-Jul-08 10:33N 31°57' E 120°16'8 7.9
2014-Jul-08 09:33N 31°58' E 120°25'6 6.1
2014-Jul-08 08:33N 32°02' E 120°31'9 9.0
2014-Jul-08 07:33N 32°00' E 120°41'7 7.4
2014-Jul-08 06:33N 31°59' E 120°50'10 9.9
2014-Jul-08 05:33N 31°50' E 120°54'11 9.5
2014-Jul-08 04:22N 31°45' E 121°06'1110.8
2014-Jul-08 03:20N 31°38' E 121°16'4 4.1
2014-Jul-08 02:17N 31°35' E 121°20'0 0.1
2014-Jul-08 00:11N 31°35' E 121°19'0 0.1
2014-Jul-07 23:29N 31°35' E 121°19'0 0.1
2014-Jul-07 22:29N 31°35' E 121°20'0 0.0
2014-Jul-07 21:29N 31°35' E 121°20'0 0.0
2014-Jul-07 20:29N 31°35' E 121°20'0 0.0
2014-Jul-07 18:29N 31°35' E 121°20'0 0.0
2014-Jul-07 17:11N 31°35' E 121°20'0 0.0
2014-Jul-07 16:29N 31°35' E 121°20'0 0.0
2014-Jul-07 15:33N 31°35' E 121°20'4 4.0
2014-Jul-07 14:34N 31°32' E 121°23'10 9.6
2014-Jul-07 13:33N 31°25' E 121°31'9 9.1
2014-Jul-07 12:34N 31°21' E 121°40'10 9.9
2014-Jul-07 11:32N 31°16' E 121°51'2510.0
2014-Jul-07 09:04N 31°07' E 122°18'14 8.1
2014-Jul-07 07:22N 31°08' E 122°34'10 0.8
2014-Jul-06 19:23N 31°06' E 122°45'1011.2
2014-Jul-06 18:32N 30°58' E 122°52'1111.3
2014-Jul-06 17:33N 30°48' E 122°56'1211.3
2014-Jul-06 16:32N 30°37' E 123°00'1111.2
2014-Jul-06 15:33N 30°26' E 123°04'1411.5
2014-Jul-06 14:20N 30°13' E 123°08'3111.1
2014-Jul-06 11:33N 29°50' E 122°44'1111.1
2014-Jul-06 10:34N 29°42' E 122°35'1211.7
2014-Jul-06 09:33N 29°43' E 122°22'1010.3
2014-Jul-06 08:33N 29°50' E 122°13'9 9.4
2014-Jul-06 07:33N 29°55' E 122°04'8 7.9
2014-Jul-06 06:33N 30°02' E 121°59'0 0.4
2014-Jul-06 05:24N 30°02' E 121°59'0 0.0
2014-Jul-06 04:30N 30°02' E 121°59'0 0.0
2014-Jul-06 03:30N 30°02' E 121°59'0 0.0
2014-Jul-06 02:30N 30°02' E 121°59'0 0.0
2014-Jul-06 01:30N 30°02' E 121°59'0 0.0
2014-Jul-06 00:30N 30°02' E 121°59'0 0.0
2014-Jul-05 23:30N 30°02' E 121°59'0 0.0
2014-Jul-05 22:29N 30°02' E 121°59'0 0.0
2014-Jul-05 21:30N 30°02' E 121°59'0 0.0
2014-Jul-05 20:24N 30°02' E 121°59'0 0.0
2014-Jul-05 19:30N 30°02' E 121°59'0 0.0
2014-Jul-05 18:30N 30°02' E 121°59'0 0.0
2014-Jul-05 17:30N 30°02' E 121°59'0 0.0
2014-Jul-05 16:30N 30°02' E 121°59'0 0.0
2014-Jul-05 15:30N 30°02' E 121°59'0 0.0
2014-Jul-05 14:30N 30°02' E 121°59'0 0.0
2014-Jul-05 13:24N 30°02' E 121°59'0 0.0
2014-Jul-05 12:30N 30°02' E 121°59'0 0.0
2014-Jul-05 11:30N 30°02' E 121°59'0 0.0
2014-Jul-05 10:30N 30°02' E 121°59'0 0.0
2014-Jul-05 09:29N 30°02' E 121°59'0 0.0
2014-Jul-05 08:30N 30°02' E 121°59'0 0.0
2014-Jul-05 07:30N 30°02' E 121°59'0 0.0
2014-Jul-05 06:30N 30°02' E 121°59'0 0.0
2014-Jul-05 05:33N 30°02' E 121°59'3 3.0
2014-Jul-05 04:34N 29°59' E 121°58'1010.2
2014-Jul-05 03:34N 29°56' E 122°09'1010.2
2014-Jul-05 02:33N 29°47' E 122°16'7 6.9
2014-Jul-05 01:33N 29°44' E 122°23'9 8.6
2014-Jul-05 00:32N 29°40' E 122°32'5 1.6
2014-Jul-04 21:31N 29°35' E 122°34'0 0.1
2014-Jul-04 20:31N 29°35' E 122°34'0 0.1
2014-Jul-04 19:31N 29°35' E 122°34'  

Dump ship's entire track history